Terminal Aerodrome Forecast
Issued by NWS Twin Cities, MN

Home | Current Version | Previous Version | Graphics & Text | Print | Product List | Glossary Off
Versions: 1 2 3 4 5 6 7 8 9 10 11 12 13 14 15 16 17 18 19 20 21

000
FTUS43 KMPX 310520
TAFEAU
TAF
KEAU 310520Z 3106/0106 19004KT 6SM BR SKC
     FM310700 19004KT 3SM BR OVC006
      TEMPO 3107/3110 6SM BR SCT006
     FM311500 19009KT P6SM BKN010
     FM311700 19014G20KT P6SM SKC
     FM010000 18007KT P6SM SCT250=

USA.gov is the U.S. government's official web portal to all federal, state and local government web resources and services.